Columbus, Ohio
Traffic Map
Current Weather Conditions
Columbus, Ohio
Clear
Clear
68°
Feels Like: 68°
Wind Chill: 68° Ceiling: Unl
Heat Index: 68° Visibility: 10mi
Dew Point: 60° Wind: 5mph
Humidity: 76% Direction: 70° (ENE)
Pressure: 30.18in Gusts: 0mph
Raw Report DataKCMH 300651Z 07004KT 10SM CLR 20/16 A3018 RMK AO2 SLP212 T02000156
Traffic Incident Summary
Active as of:
Severity:
Category:
InformationThere was an issue retrieving the traffic information for this location. Please try a different location or try again shortly.
Advertisements
Track Severe Weather on mobile